Terminal Aerodrome Forecast
Issued by NWS Bismarck, ND

Home | Current Version | Previous Version | Text Only | Print | Product List | Glossary On
Versions: 1 2 3 4 5 6 7 8 9 10 11 12 13 14 15 16 17 18 19 20
000
FTUS43 KBIS 101100
TAFBIS
TAF
KBIS 101130Z 1012/1112 15006KT 6SM FU SCT150
     FM101600 17013KT P6SM SCT100 BKN250
     FM110000 13006KT P6SM SCT250=

USA.gov is the U.S. government's official web portal to all federal, state and local government web resources and services.